Terminal Aerodrome Forecast
Issued by NWS Newport/Morehead City, NC

Home | Current Version | Previous Version | Graphics & Text | Print | Product List | Glossary On
Versions: 1 2 3 4 5 6 7 8 9 10 11 12 13 14 15 16
889
FTUS42 KMHX 211316 AAA
TAFEWN
TAF AMD
KEWN 211316Z 2113/2212 27005KT P6SM -RA BKN040 BKN100
     FM211600 26006KT P6SM BKN035
     FM212100 22006KT P6SM BKN060=

USA.gov is the U.S. government's official web portal to all federal, state and local government web resources and services.